sensor_id;sensor_type;location;lat;lon;timestamp;temperature;humidity
15107;DHT22;7654;45.308;-75.096;2022-12-24T00:01:41;-6.60;99.90
15107;DHT22;7654;45.308;-75.096;2022-12-24T00:04:13;-6.70;99.90
15107;DHT22;7654;45.308;-75.096;2022-12-24T00:06:44;-6.70;99.90
15107;DHT22;7654;45.308;-75.096;2022-12-24T00:09:15;-6.70;99.90
15107;DHT22;7654;45.308;-75.096;2022-12-24T00:11:47;-6.80;99.90
15107;DHT22;7654;45.308;-75.096;2022-12-24T00:14:20;-6.90;99.90
15107;DHT22;7654;45.308;-75.096;2022-12-24T00:16:51;-7.00;99.90
15107;DHT22;7654;45.308;-75.096;2022-12-24T00:19:23;-7.10;99.90
15107;DHT22;7654;45.308;-75.096;2022-12-24T00:21:58;-7.20;99.90
15107;DHT22;7654;45.308;-75.096;2022-12-24T00:24:28;-7.30;99.90
15107;DHT22;7654;45.308;-75.096;2022-12-24T00:26:59;-7.40;99.90
15107;DHT22;7654;45.308;-75.096;2022-12-24T00:29:34;-7.40;99.90
15107;DHT22;7654;45.308;-75.096;2022-12-24T00:32:05;-7.40;99.90
15107;DHT22;7654;45.308;-75.096;2022-12-24T00:34:37;-7.50;99.90
15107;DHT22;7654;45.308;-75.096;2022-12-24T00:37:09;-7.50;99.90
15107;DHT22;7654;45.308;-75.096;2022-12-24T00:39:40;-7.60;99.90
15107;DHT22;7654;45.308;-75.096;2022-12-24T00:42:11;-7.60;99.90
15107;DHT22;7654;45.308;-75.096;2022-12-24T00:44:45;-7.60;99.90
15107;DHT22;7654;45.308;-75.096;2022-12-24T00:47:15;-7.60;99.90
15107;DHT22;7654;45.308;-75.096;2022-12-24T00:49:47;-7.50;99.90
15107;DHT22;7654;45.308;-75.096;2022-12-24T00:52:19;-7.50;99.90
15107;DHT22;7654;45.308;-75.096;2022-12-24T00:54:50;-7.60;99.90
15107;DHT22;7654;45.308;-75.096;2022-12-24T00:57:21;-7.50;99.90
15107;DHT22;7654;45.308;-75.096;2022-12-24T00:59:53;-7.60;99.90
15107;DHT22;7654;45.308;-75.096;2022-12-24T01:02:24;-7.50;99.90
15107;DHT22;7654;45.308;-75.096;2022-12-24T01:04:55;-7.50;99.90
15107;DHT22;7654;45.308;-75.096;2022-12-24T01:07:42;-7.50;99.90
15107;DHT22;7654;45.308;-75.096;2022-12-24T01:10:12;-7.50;99.90
15107;DHT22;7654;45.308;-75.096;2022-12-24T01:12:44;-7.50;99.90
15107;DHT22;7654;45.308;-75.096;2022-12-24T01:15:17;-7.40;99.90
15107;DHT22;7654;45.308;-75.096;2022-12-24T01:17:47;-7.50;99.90
15107;DHT22;7654;45.308;-75.096;2022-12-24T01:20:18;-7.50;99.90
15107;DHT22;7654;45.308;-75.096;2022-12-24T01:22:48;-7.50;99.90
15107;DHT22;7654;45.308;-75.096;2022-12-24T01:25:19;-7.50;99.90
15107;DHT22;7654;45.308;-75.096;2022-12-24T01:27:50;-7.60;99.90
15107;DHT22;7654;45.308;-75.096;2022-12-24T01:30:23;-7.50;99.90
15107;DHT22;7654;45.308;-75.096;2022-12-24T01:32:54;-7.60;99.90
15107;DHT22;7654;45.308;-75.096;2022-12-24T01:35:25;-7.60;99.90
15107;DHT22;7654;45.308;-75.096;2022-12-24T01:37:55;-7.70;99.90
15107;DHT22;7654;45.308;-75.096;2022-12-24T01:40:27;-7.60;99.90
15107;DHT22;7654;45.308;-75.096;2022-12-24T01:43:17;-7.80;99.90
15107;DHT22;7654;45.308;-75.096;2022-12-24T01:45:58;-7.80;99.90
15107;DHT22;7654;45.308;-75.096;2022-12-24T01:48:36;-7.80;99.90
15107;DHT22;7654;45.308;-75.096;2022-12-24T01:51:16;-7.80;99.90
15107;DHT22;7654;45.308;-75.096;2022-12-24T01:53:51;-7.80;99.90
15107;DHT22;7654;45.308;-75.096;2022-12-24T01:56:23;-7.90;99.90
15107;DHT22;7654;45.308;-75.096;2022-12-24T01:58:56;-7.90;99.90
15107;DHT22;7654;45.308;-75.096;2022-12-24T02:01:34;-7.90;99.90
15107;DHT22;7654;45.308;-75.096;2022-12-24T02:04:10;-7.90;99.90
15107;DHT22;7654;45.308;-75.096;2022-12-24T02:06:42;-7.90;99.90
15107;DHT22;7654;45.308;-75.096;2022-12-24T02:09:12;-7.80;99.90
15107;DHT22;7654;45.308;-75.096;2022-12-24T02:11:43;-7.80;99.90
15107;DHT22;7654;45.308;-75.096;2022-12-24T02:14:14;-7.90;99.90
15107;DHT22;7654;45.308;-75.096;2022-12-24T02:16:53;-7.90;99.90
15107;DHT22;7654;45.308;-75.096;2022-12-24T02:20:08;-8.00;99.90
15107;DHT22;7654;45.308;-75.096;2022-12-24T02:23:05;-8.00;99.90
15107;DHT22;7654;45.308;-75.096;2022-12-24T02:25:55;-8.00;99.90
15107;DHT22;7654;45.308;-75.096;2022-12-24T02:28:41;-8.00;99.90
15107;DHT22;7654;45.308;-75.096;2022-12-24T02:31:18;-8.00;99.90
15107;DHT22;7654;45.308;-75.096;2022-12-24T02:33:53;-7.90;99.90
15107;DHT22;7654;45.308;-75.096;2022-12-24T02:36:29;-7.90;99.90
15107;DHT22;7654;45.308;-75.096;2022-12-24T02:39:03;-8.00;99.90
15107;DHT22;7654;45.308;-75.096;2022-12-24T02:41:36;-8.00;99.90
15107;DHT22;7654;45.308;-75.096;2022-12-24T02:44:25;-8.00;99.90
15107;DHT22;7654;45.308;-75.096;2022-12-24T02:47:00;-8.10;99.90
15107;DHT22;7654;45.308;-75.096;2022-12-24T02:49:31;-8.10;99.90
15107;DHT22;7654;45.308;-75.096;2022-12-24T02:52:01;-8.10;99.90
15107;DHT22;7654;45.308;-75.096;2022-12-24T02:54:32;-8.10;99.90
15107;DHT22;7654;45.308;-75.096;2022-12-24T02:57:12;-8.10;99.90
15107;DHT22;7654;45.308;-75.096;2022-12-24T02:59:58;-8.10;99.90
15107;DHT22;7654;45.308;-75.096;2022-12-24T03:02:45;-8.10;99.90
15107;DHT22;7654;45.308;-75.096;2022-12-24T03:05:21;-8.20;99.90
15107;DHT22;7654;45.308;-75.096;2022-12-24T03:07:58;-8.20;99.90
15107;DHT22;7654;45.308;-75.096;2022-12-24T03:10:35;-8.20;99.90
15107;DHT22;7654;45.308;-75.096;2022-12-24T03:13:11;-8.20;99.90
15107;DHT22;7654;45.308;-75.096;2022-12-24T03:15:43;-8.20;99.90
15107;DHT22;7654;45.308;-75.096;2022-12-24T03:18:17;-8.20;99.90
15107;DHT22;7654;45.308;-75.096;2022-12-24T03:20:53;-8.20;99.90
15107;DHT22;7654;45.308;-75.096;2022-12-24T03:23:27;-8.10;99.90
15107;DHT22;7654;45.308;-75.096;2022-12-24T03:26:00;-8.10;99.90
15107;DHT22;7654;45.308;-75.096;2022-12-24T03:28:31;-8.20;99.90
15107;DHT22;7654;45.308;-75.096;2022-12-24T03:31:02;-8.20;99.90
15107;DHT22;7654;45.308;-75.096;2022-12-24T03:33:35;-8.20;99.90
15107;DHT22;7654;45.308;-75.096;2022-12-24T03:36:07;-8.20;99.90
15107;DHT22;7654;45.308;-75.096;2022-12-24T03:38:37;-8.10;99.90
15107;DHT22;7654;45.308;-75.096;2022-12-24T03:41:09;-8.10;99.90
15107;DHT22;7654;45.308;-75.096;2022-12-24T03:43:39;-8.00;99.90
15107;DHT22;7654;45.308;-75.096;2022-12-24T03:46:10;-8.00;99.90
15107;DHT22;7654;45.308;-75.096;2022-12-24T03:48:41;-8.00;99.90
15107;DHT22;7654;45.308;-75.096;2022-12-24T03:51:17;-8.00;99.90
15107;DHT22;7654;45.308;-75.096;2022-12-24T03:53:47;-7.90;99.90
15107;DHT22;7654;45.308;-75.096;2022-12-24T03:56:18;-7.90;99.90
15107;DHT22;7654;45.308;-75.096;2022-12-24T03:58:48;-7.90;99.90
15107;DHT22;7654;45.308;-75.096;2022-12-24T04:01:19;-7.90;99.90
15107;DHT22;7654;45.308;-75.096;2022-12-24T04:03:51;-7.90;99.90
15107;DHT22;7654;45.308;-75.096;2022-12-24T04:06:21;-7.90;99.90
15107;DHT22;7654;45.308;-75.096;2022-12-24T04:08:51;-7.90;99.90
15107;DHT22;7654;45.308;-75.096;2022-12-24T04:11:21;-7.90;99.90
15107;DHT22;7654;45.308;-75.096;2022-12-24T04:13:51;-8.00;99.90
15107;DHT22;7654;45.308;-75.096;2022-12-24T04:16:22;-8.00;99.90
15107;DHT22;7654;45.308;-75.096;2022-12-24T04:18:53;-8.00;99.90
15107;DHT22;7654;45.308;-75.096;2022-12-24T04:21:24;-8.10;99.90
15107;DHT22;7654;45.308;-75.096;2022-12-24T04:23:54;-8.10;99.90
15107;DHT22;7654;45.308;-75.096;2022-12-24T04:26:24;-8.10;99.90
15107;DHT22;7654;45.308;-75.096;2022-12-24T04:28:55;-8.10;99.90
15107;DHT22;7654;45.308;-75.096;2022-12-24T04:31:26;-8.10;99.90
15107;DHT22;7654;45.308;-75.096;2022-12-24T04:33:58;-8.10;99.90
15107;DHT22;7654;45.308;-75.096;2022-12-24T04:36:28;-8.10;99.90
15107;DHT22;7654;45.308;-75.096;2022-12-24T04:38:58;-8.10;99.90
15107;DHT22;7654;45.308;-75.096;2022-12-24T04:41:28;-8.10;99.90
15107;DHT22;7654;45.308;-75.096;2022-12-24T04:43:59;-8.10;99.90
15107;DHT22;7654;45.308;-75.096;2022-12-24T04:46:29;-8.10;99.90
15107;DHT22;7654;45.308;-75.096;2022-12-24T04:49:04;-8.10;99.90
15107;DHT22;7654;45.308;-75.096;2022-12-24T04:51:34;-8.10;99.90
15107;DHT22;7654;45.308;-75.096;2022-12-24T04:54:04;-8.10;99.90
15107;DHT22;7654;45.308;-75.096;2022-12-24T04:56:34;-8.10;99.90
15107;DHT22;7654;45.308;-75.096;2022-12-24T04:59:05;-8.10;99.90
15107;DHT22;7654;45.308;-75.096;2022-12-24T05:01:35;-8.10;99.90
15107;DHT22;7654;45.308;-75.096;2022-12-24T05:04:08;-8.00;99.90
15107;DHT22;7654;45.308;-75.096;2022-12-24T05:06:40;-8.00;99.90
15107;DHT22;7654;45.308;-75.096;2022-12-24T05:09:11;-8.00;99.90
15107;DHT22;7654;45.308;-75.096;2022-12-24T05:11:41;-8.00;99.90
15107;DHT22;7654;45.308;-75.096;2022-12-24T05:14:11;-8.00;99.90
15107;DHT22;7654;45.308;-75.096;2022-12-24T05:16:41;-8.00;99.90
15107;DHT22;7654;45.308;-75.096;2022-12-24T05:19:14;-7.90;99.90
15107;DHT22;7654;45.308;-75.096;2022-12-24T05:21:44;-7.90;99.90
15107;DHT22;7654;45.308;-75.096;2022-12-24T05:24:35;-8.00;99.90
15107;DHT22;7654;45.308;-75.096;2022-12-24T05:27:22;-8.00;99.90
15107;DHT22;7654;45.308;-75.096;2022-12-24T05:29:53;-8.00;99.90
15107;DHT22;7654;45.308;-75.096;2022-12-24T05:32:23;-7.90;99.90
15107;DHT22;7654;45.308;-75.096;2022-12-24T05:34:55;-7.90;99.90
15107;DHT22;7654;45.308;-75.096;2022-12-24T05:37:25;-7.90;99.90
15107;DHT22;7654;45.308;-75.096;2022-12-24T05:39:55;-7.90;99.90
15107;DHT22;7654;45.308;-75.096;2022-12-24T05:42:25;-8.00;99.90
15107;DHT22;7654;45.308;-75.096;2022-12-24T05:44:56;-8.00;99.90
15107;DHT22;7654;45.308;-75.096;2022-12-24T05:47:26;-8.00;99.90
15107;DHT22;7654;45.308;-75.096;2022-12-24T05:49:58;-8.00;99.90
15107;DHT22;7654;45.308;-75.096;2022-12-24T05:52:28;-8.00;99.90
15107;DHT22;7654;45.308;-75.096;2022-12-24T05:54:58;-8.00;99.90
15107;DHT22;7654;45.308;-75.096;2022-12-24T05:57:29;-7.90;99.90
15107;DHT22;7654;45.308;-75.096;2022-12-24T05:59:59;-7.90;99.90
15107;DHT22;7654;45.308;-75.096;2022-12-24T06:02:29;-7.90;99.90
15107;DHT22;7654;45.308;-75.096;2022-12-24T06:05:01;-7.90;99.90
15107;DHT22;7654;45.308;-75.096;2022-12-24T06:07:31;-7.90;99.90
15107;DHT22;7654;45.308;-75.096;2022-12-24T06:10:01;-7.90;99.90
15107;DHT22;7654;45.308;-75.096;2022-12-24T06:12:31;-7.90;99.90
15107;DHT22;7654;45.308;-75.096;2022-12-24T06:15:02;-7.90;99.90
15107;DHT22;7654;45.308;-75.096;2022-12-24T06:17:33;-7.90;99.90
15107;DHT22;7654;45.308;-75.096;2022-12-24T06:20:05;-7.80;99.90
15107;DHT22;7654;45.308;-75.096;2022-12-24T06:22:36;-7.90;99.90
15107;DHT22;7654;45.308;-75.096;2022-12-24T06:25:07;-7.90;99.90
15107;DHT22;7654;45.308;-75.096;2022-12-24T06:27:37;-7.90;99.90
15107;DHT22;7654;45.308;-75.096;2022-12-24T06:30:09;-7.90;99.90
15107;DHT22;7654;45.308;-75.096;2022-12-24T06:32:39;-7.90;99.90
15107;DHT22;7654;45.308;-75.096;2022-12-24T06:35:11;-7.90;99.90
15107;DHT22;7654;45.308;-75.096;2022-12-24T06:37:41;-7.90;99.90
15107;DHT22;7654;45.308;-75.096;2022-12-24T06:40:11;-7.90;99.90
15107;DHT22;7654;45.308;-75.096;2022-12-24T06:42:41;-7.90;99.90
15107;DHT22;7654;45.308;-75.096;2022-12-24T06:45:12;-7.90;99.90
15107;DHT22;7654;45.308;-75.096;2022-12-24T06:47:42;-7.90;99.90
15107;DHT22;7654;45.308;-75.096;2022-12-24T06:50:14;-7.90;99.90
15107;DHT22;7654;45.308;-75.096;2022-12-24T06:52:44;-8.00;99.90
15107;DHT22;7654;45.308;-75.096;2022-12-24T06:55:14;-8.00;99.90
15107;DHT22;7654;45.308;-75.096;2022-12-24T06:57:44;-8.00;99.90
15107;DHT22;7654;45.308;-75.096;2022-12-24T07:00:15;-8.00;99.90
15107;DHT22;7654;45.308;-75.096;2022-12-24T07:02:46;-8.00;99.90
15107;DHT22;7654;45.308;-75.096;2022-12-24T07:05:17;-8.00;99.90
15107;DHT22;7654;45.308;-75.096;2022-12-24T07:07:48;-8.00;99.90
15107;DHT22;7654;45.308;-75.096;2022-12-24T07:10:18;-8.00;99.90
15107;DHT22;7654;45.308;-75.096;2022-12-24T07:12:49;-8.00;99.90
15107;DHT22;7654;45.308;-75.096;2022-12-24T07:15:19;-8.00;99.90
15107;DHT22;7654;45.308;-75.096;2022-12-24T07:17:49;-8.00;99.90
15107;DHT22;7654;45.308;-75.096;2022-12-24T07:20:21;-8.00;99.90
15107;DHT22;7654;45.308;-75.096;2022-12-24T07:22:52;-8.00;99.90
15107;DHT22;7654;45.308;-75.096;2022-12-24T07:25:22;-8.00;99.90
15107;DHT22;7654;45.308;-75.096;2022-12-24T07:27:52;-8.00;99.90
15107;DHT22;7654;45.308;-75.096;2022-12-24T07:30:23;-8.00;99.90
15107;DHT22;7654;45.308;-75.096;2022-12-24T07:32:53;-8.00;99.90
15107;DHT22;7654;45.308;-75.096;2022-12-24T07:35:25;-8.00;99.90
15107;DHT22;7654;45.308;-75.096;2022-12-24T07:37:55;-8.00;99.90
15107;DHT22;7654;45.308;-75.096;2022-12-24T07:40:25;-8.00;99.90
15107;DHT22;7654;45.308;-75.096;2022-12-24T07:42:55;-8.10;99.90
15107;DHT22;7654;45.308;-75.096;2022-12-24T07:45:26;-8.10;99.90
15107;DHT22;7654;45.308;-75.096;2022-12-24T07:47:56;-8.10;99.90
15107;DHT22;7654;45.308;-75.096;2022-12-24T07:50:28;-8.10;99.90
15107;DHT22;7654;45.308;-75.096;2022-12-24T07:52:58;-8.20;99.90
15107;DHT22;7654;45.308;-75.096;2022-12-24T07:55:28;-8.20;99.90
15107;DHT22;7654;45.308;-75.096;2022-12-24T07:57:58;-8.20;99.90
15107;DHT22;7654;45.308;-75.096;2022-12-24T08:00:29;-8.30;99.90
15107;DHT22;7654;45.308;-75.096;2022-12-24T08:02:59;-8.30;99.90
15107;DHT22;7654;45.308;-75.096;2022-12-24T08:05:33;-8.30;99.90
15107;DHT22;7654;45.308;-75.096;2022-12-24T08:08:04;-8.30;99.90
15107;DHT22;7654;45.308;-75.096;2022-12-24T08:10:36;-8.30;99.90
15107;DHT22;7654;45.308;-75.096;2022-12-24T08:13:07;-8.30;99.90
15107;DHT22;7654;45.308;-75.096;2022-12-24T08:15:37;-8.30;99.90
15107;DHT22;7654;45.308;-75.096;2022-12-24T08:18:07;-8.30;99.90
15107;DHT22;7654;45.308;-75.096;2022-12-24T08:20:40;-8.30;99.90
15107;DHT22;7654;45.308;-75.096;2022-12-24T08:23:10;-8.30;99.90
15107;DHT22;7654;45.308;-75.096;2022-12-24T08:25:42;-8.30;99.90
15107;DHT22;7654;45.308;-75.096;2022-12-24T08:28:14;-8.30;99.90
15107;DHT22;7654;45.308;-75.096;2022-12-24T08:30:44;-8.30;99.90
15107;DHT22;7654;45.308;-75.096;2022-12-24T08:33:14;-8.40;99.90
15107;DHT22;7654;45.308;-75.096;2022-12-24T08:35:50;-8.40;99.90
15107;DHT22;7654;45.308;-75.096;2022-12-24T08:38:21;-8.40;99.90
15107;DHT22;7654;45.308;-75.096;2022-12-24T08:40:52;-8.40;99.90
15107;DHT22;7654;45.308;-75.096;2022-12-24T08:43:23;-8.40;99.90
15107;DHT22;7654;45.308;-75.096;2022-12-24T08:45:54;-8.40;99.90
15107;DHT22;7654;45.308;-75.096;2022-12-24T08:48:24;-8.40;99.90
15107;DHT22;7654;45.308;-75.096;2022-12-24T08:50:55;-8.40;99.90
15107;DHT22;7654;45.308;-75.096;2022-12-24T08:53:26;-8.40;99.90
15107;DHT22;7654;45.308;-75.096;2022-12-24T08:56:01;-8.40;99.90
15107;DHT22;7654;45.308;-75.096;2022-12-24T08:58:31;-8.40;99.90
15107;DHT22;7654;45.308;-75.096;2022-12-24T09:01:09;-8.40;99.90
15107;DHT22;7654;45.308;-75.096;2022-12-24T09:03:41;-8.40;99.90
15107;DHT22;7654;45.308;-75.096;2022-12-24T09:06:14;-8.50;99.90
15107;DHT22;7654;45.308;-75.096;2022-12-24T09:08:44;-8.40;99.90
15107;DHT22;7654;45.308;-75.096;2022-12-24T09:11:16;-8.40;99.90
15107;DHT22;7654;45.308;-75.096;2022-12-24T09:13:46;-8.40;99.90
15107;DHT22;7654;45.308;-75.096;2022-12-24T09:16:16;-8.40;99.90
15107;DHT22;7654;45.308;-75.096;2022-12-24T09:18:47;-8.40;99.90
15107;DHT22;7654;45.308;-75.096;2022-12-24T09:21:18;-8.40;99.90
15107;DHT22;7654;45.308;-75.096;2022-12-24T09:23:49;-8.40;99.90
15107;DHT22;7654;45.308;-75.096;2022-12-24T09:26:20;-8.40;99.90
15107;DHT22;7654;45.308;-75.096;2022-12-24T09:28:51;-8.40;99.90
15107;DHT22;7654;45.308;-75.096;2022-12-24T09:31:22;-8.40;99.90
15107;DHT22;7654;45.308;-75.096;2022-12-24T09:33:52;-8.40;99.90
15107;DHT22;7654;45.308;-75.096;2022-12-24T09:36:24;-8.40;99.90
15107;DHT22;7654;45.308;-75.096;2022-12-24T09:38:54;-8.40;99.90
15107;DHT22;7654;45.308;-75.096;2022-12-24T09:41:37;-8.30;99.90
15107;DHT22;7654;45.308;-75.096;2022-12-24T09:44:18;-8.30;99.90
15107;DHT22;7654;45.308;-75.096;2022-12-24T09:46:50;-8.30;99.90
15107;DHT22;7654;45.308;-75.096;2022-12-24T09:49:24;-8.30;99.90
15107;DHT22;7654;45.308;-75.096;2022-12-24T09:52:00;-8.30;99.90
15107;DHT22;7654;45.308;-75.096;2022-12-24T09:54:36;-8.30;99.90
15107;DHT22;7654;45.308;-75.096;2022-12-24T09:57:19;-8.30;99.90
15107;DHT22;7654;45.308;-75.096;2022-12-24T09:59:52;-8.30;99.90
15107;DHT22;7654;45.308;-75.096;2022-12-24T10:02:22;-8.20;99.90
15107;DHT22;7654;45.308;-75.096;2022-12-24T10:04:54;-8.20;99.90
15107;DHT22;7654;45.308;-75.096;2022-12-24T10:07:33;-8.10;99.90
15107;DHT22;7654;45.308;-75.096;2022-12-24T10:10:16;-8.10;99.90
15107;DHT22;7654;45.308;-75.096;2022-12-24T10:12:54;-8.10;99.90
15107;DHT22;7654;45.308;-75.096;2022-12-24T10:15:31;-8.10;99.90
15107;DHT22;7654;45.308;-75.096;2022-12-24T10:18:16;-8.10;99.90
15107;DHT22;7654;45.308;-75.096;2022-12-24T10:20:56;-8.10;99.90
15107;DHT22;7654;45.308;-75.096;2022-12-24T10:23:34;-8.10;99.90
15107;DHT22;7654;45.308;-75.096;2022-12-24T10:26:11;-8.10;99.90
15107;DHT22;7654;45.308;-75.096;2022-12-24T10:28:47;-8.10;99.90
15107;DHT22;7654;45.308;-75.096;2022-12-24T10:31:24;-8.10;99.90
15107;DHT22;7654;45.308;-75.096;2022-12-24T10:33:58;-8.10;99.90
15107;DHT22;7654;45.308;-75.096;2022-12-24T10:36:31;-8.10;99.90
15107;DHT22;7654;45.308;-75.096;2022-12-24T10:39:03;-8.10;99.90
15107;DHT22;7654;45.308;-75.096;2022-12-24T10:54:07;-8.10;99.90
15107;DHT22;7654;45.308;-75.096;2022-12-24T10:56:58;-7.90;99.90
15107;DHT22;7654;45.308;-75.096;2022-12-24T10:59:30;-8.00;99.90
15107;DHT22;7654;45.308;-75.096;2022-12-24T11:02:01;-8.00;99.90
15107;DHT22;7654;45.308;-75.096;2022-12-24T11:04:32;-8.00;99.90
15107;DHT22;7654;45.308;-75.096;2022-12-24T11:07:19;-8.00;99.90
15107;DHT22;7654;45.308;-75.096;2022-12-24T11:09:56;-8.00;99.90
15107;DHT22;7654;45.308;-75.096;2022-12-24T11:12:29;-8.00;99.90
15107;DHT22;7654;45.308;-75.096;2022-12-24T11:15:02;-7.90;99.90
15107;DHT22;7654;45.308;-75.096;2022-12-24T11:17:33;-7.90;99.90
15107;DHT22;7654;45.308;-75.096;2022-12-24T11:20:03;-7.90;99.90
15107;DHT22;7654;45.308;-75.096;2022-12-24T11:22:34;-7.90;99.90
15107;DHT22;7654;45.308;-75.096;2022-12-24T11:25:17;-7.90;99.90
15107;DHT22;7654;45.308;-75.096;2022-12-24T11:27:49;-7.90;99.90
15107;DHT22;7654;45.308;-75.096;2022-12-24T11:30:22;-7.90;99.90
15107;DHT22;7654;45.308;-75.096;2022-12-24T11:36:03;-7.90;99.90
15107;DHT22;7654;45.308;-75.096;2022-12-24T11:38:34;-7.90;99.90
15107;DHT22;7654;45.308;-75.096;2022-12-24T11:41:10;-7.90;99.90
15107;DHT22;7654;45.308;-75.096;2022-12-24T11:43:42;-7.90;99.90
15107;DHT22;7654;45.308;-75.096;2022-12-24T11:46:21;-8.00;99.90
15107;DHT22;7654;45.308;-75.096;2022-12-24T11:49:13;-8.20;99.90
15107;DHT22;7654;45.308;-75.096;2022-12-24T11:52:09;-8.70;99.90
15107;DHT22;7654;45.308;-75.096;2022-12-24T11:54:49;-9.00;99.90
15107;DHT22;7654;45.308;-75.096;2022-12-24T11:57:29;-9.20;99.90
15107;DHT22;7654;45.308;-75.096;2022-12-24T12:00:00;-9.40;99.90
15107;DHT22;7654;45.308;-75.096;2022-12-24T12:02:33;-9.50;99.90
15107;DHT22;7654;45.308;-75.096;2022-12-24T12:05:09;-9.50;99.90
15107;DHT22;7654;45.308;-75.096;2022-12-24T12:07:42;-9.50;99.90
15107;DHT22;7654;45.308;-75.096;2022-12-24T12:10:18;-9.50;99.90
15107;DHT22;7654;45.308;-75.096;2022-12-24T12:12:57;-9.60;99.90
15107;DHT22;7654;45.308;-75.096;2022-12-24T12:15:32;-9.60;99.90
15107;DHT22;7654;45.308;-75.096;2022-12-24T12:18:07;-9.70;99.90
15107;DHT22;7654;45.308;-75.096;2022-12-24T12:20:40;-9.70;99.90
15107;DHT22;7654;45.308;-75.096;2022-12-24T12:23:15;-9.70;99.90
15107;DHT22;7654;45.308;-75.096;2022-12-24T12:25:50;-9.70;99.90
15107;DHT22;7654;45.308;-75.096;2022-12-24T12:28:27;-9.80;99.90
15107;DHT22;7654;45.308;-75.096;2022-12-24T12:31:02;-9.90;99.90
15107;DHT22;7654;45.308;-75.096;2022-12-24T12:33:45;-9.90;99.90
15107;DHT22;7654;45.308;-75.096;2022-12-24T12:36:20;-10.00;99.90
15107;DHT22;7654;45.308;-75.096;2022-12-24T12:38:51;-10.10;99.90
15107;DHT22;7654;45.308;-75.096;2022-12-24T12:41:30;-10.10;99.90
15107;DHT22;7654;45.308;-75.096;2022-12-24T12:44:23;-10.10;99.90
15107;DHT22;7654;45.308;-75.096;2022-12-24T12:47:24;-10.20;99.90
15107;DHT22;7654;45.308;-75.096;2022-12-24T12:50:06;-10.20;99.90
15107;DHT22;7654;45.308;-75.096;2022-12-24T12:52:54;-10.20;99.90
15107;DHT22;7654;45.308;-75.096;2022-12-24T12:55:35;-10.20;99.90
15107;DHT22;7654;45.308;-75.096;2022-12-24T12:58:14;-10.20;99.90
15107;DHT22;7654;45.308;-75.096;2022-12-24T13:00:51;-10.20;99.90
15107;DHT22;7654;45.308;-75.096;2022-12-24T13:03:40;-10.20;99.90
15107;DHT22;7654;45.308;-75.096;2022-12-24T13:06:37;-10.20;99.90
15107;DHT22;7654;45.308;-75.096;2022-12-24T13:09:30;-10.20;99.90
15107;DHT22;7654;45.308;-75.096;2022-12-24T13:12:18;-10.20;99.90
15107;DHT22;7654;45.308;-75.096;2022-12-24T13:15:21;-10.20;99.90
15107;DHT22;7654;45.308;-75.096;2022-12-24T13:18:27;-10.20;99.90
15107;DHT22;7654;45.308;-75.096;2022-12-24T13:21:01;-10.10;99.90
15107;DHT22;7654;45.308;-75.096;2022-12-24T13:23:31;-10.10;99.90
15107;DHT22;7654;45.308;-75.096;2022-12-24T13:26:09;-10.00;99.90
15107;DHT22;7654;45.308;-75.096;2022-12-24T13:28:41;-9.90;99.90
15107;DHT22;7654;45.308;-75.096;2022-12-24T13:31:26;-10.00;99.90
15107;DHT22;7654;45.308;-75.096;2022-12-24T13:34:02;-10.00;99.90
15107;DHT22;7654;45.308;-75.096;2022-12-24T13:36:59;-10.00;99.90
15107;DHT22;7654;45.308;-75.096;2022-12-24T13:43:06;-10.20;99.90
15107;DHT22;7654;45.308;-75.096;2022-12-24T13:45:48;-10.20;99.90
15107;DHT22;7654;45.308;-75.096;2022-12-24T13:48:30;-10.20;99.90
15107;DHT22;7654;45.308;-75.096;2022-12-24T13:51:18;-10.20;99.90
15107;DHT22;7654;45.308;-75.096;2022-12-24T13:53:49;-10.20;99.90
15107;DHT22;7654;45.308;-75.096;2022-12-24T14:08:13;-10.30;99.90
15107;DHT22;7654;45.308;-75.096;2022-12-24T14:10:57;-10.20;99.90
15107;DHT22;7654;45.308;-75.096;2022-12-24T14:13:50;-10.20;99.90
15107;DHT22;7654;45.308;-75.096;2022-12-24T14:16:22;-10.10;99.90
15107;DHT22;7654;45.308;-75.096;2022-12-24T14:18:59;-10.10;99.90
15107;DHT22;7654;45.308;-75.096;2022-12-24T14:21:33;-10.00;99.90
15107;DHT22;7654;45.308;-75.096;2022-12-24T14:24:11;-10.00;99.90
15107;DHT22;7654;45.308;-75.096;2022-12-24T14:26:46;-9.90;99.90
15107;DHT22;7654;45.308;-75.096;2022-12-24T14:29:21;-9.80;99.90
15107;DHT22;7654;45.308;-75.096;2022-12-24T14:31:54;-9.90;99.90
15107;DHT22;7654;45.308;-75.096;2022-12-24T14:34:25;-9.90;99.90
15107;DHT22;7654;45.308;-75.096;2022-12-24T14:36:56;-9.80;99.90
15107;DHT22;7654;45.308;-75.096;2022-12-24T14:39:33;-9.90;99.90
15107;DHT22;7654;45.308;-75.096;2022-12-24T14:42:16;-10.00;99.90
15107;DHT22;7654;45.308;-75.096;2022-12-24T14:44:58;-9.90;99.90
15107;DHT22;7654;45.308;-75.096;2022-12-24T14:47:36;-9.80;99.90
15107;DHT22;7654;45.308;-75.096;2022-12-24T14:53:40;-9.70;99.90
15107;DHT22;7654;45.308;-75.096;2022-12-24T14:56:20;-9.60;99.90
15107;DHT22;7654;45.308;-75.096;2022-12-24T14:58:50;-9.60;99.90
15107;DHT22;7654;45.308;-75.096;2022-12-24T15:01:22;-9.70;99.90
15107;DHT22;7654;45.308;-75.096;2022-12-24T15:04:01;-9.60;99.90
15107;DHT22;7654;45.308;-75.096;2022-12-24T15:06:33;-9.70;99.90
15107;DHT22;7654;45.308;-75.096;2022-12-24T15:09:05;-9.60;99.90
15107;DHT22;7654;45.308;-75.096;2022-12-24T15:11:37;-9.60;99.90
15107;DHT22;7654;45.308;-75.096;2022-12-24T15:14:10;-9.60;99.90
15107;DHT22;7654;45.308;-75.096;2022-12-24T15:16:51;-9.60;99.90
15107;DHT22;7654;45.308;-75.096;2022-12-24T15:19:24;-9.50;99.90
15107;DHT22;7654;45.308;-75.096;2022-12-24T15:21:55;-9.60;99.90
15107;DHT22;7654;45.308;-75.096;2022-12-24T15:24:27;-9.60;99.90
15107;DHT22;7654;45.308;-75.096;2022-12-24T15:27:16;-9.60;99.90
15107;DHT22;7654;45.308;-75.096;2022-12-24T15:29:49;-9.50;99.90
15107;DHT22;7654;45.308;-75.096;2022-12-24T15:32:20;-9.40;99.90
15107;DHT22;7654;45.308;-75.096;2022-12-24T15:34:52;-9.20;99.90
15107;DHT22;7654;45.308;-75.096;2022-12-24T15:37:24;-9.20;99.90
15107;DHT22;7654;45.308;-75.096;2022-12-24T15:39:55;-9.00;99.90
15107;DHT22;7654;45.308;-75.096;2022-12-24T15:42:28;-9.00;99.90
15107;DHT22;7654;45.308;-75.096;2022-12-24T15:45:01;-9.00;99.90
15107;DHT22;7654;45.308;-75.096;2022-12-24T15:47:34;-9.00;99.90
15107;DHT22;7654;45.308;-75.096;2022-12-24T15:50:14;-9.00;99.90
15107;DHT22;7654;45.308;-75.096;2022-12-24T16:07:05;-9.00;99.90
15107;DHT22;7654;45.308;-75.096;2022-12-24T16:09:40;-9.20;99.90
15107;DHT22;7654;45.308;-75.096;2022-12-24T16:12:19;-9.10;99.90
15107;DHT22;7654;45.308;-75.096;2022-12-24T16:14:52;-9.00;99.90
15107;DHT22;7654;45.308;-75.096;2022-12-24T16:17:24;-9.10;99.90
15107;DHT22;7654;45.308;-75.096;2022-12-24T16:19:58;-9.10;99.90
15107;DHT22;7654;45.308;-75.096;2022-12-24T16:22:31;-9.00;99.90
15107;DHT22;7654;45.308;-75.096;2022-12-24T16:25:20;-9.20;99.90
15107;DHT22;7654;45.308;-75.096;2022-12-24T16:27:51;-9.10;99.90
15107;DHT22;7654;45.308;-75.096;2022-12-24T16:30:26;-9.10;99.90
15107;DHT22;7654;45.308;-75.096;2022-12-24T16:32:57;-9.10;99.90
15107;DHT22;7654;45.308;-75.096;2022-12-24T16:35:29;-9.30;99.90
15107;DHT22;7654;45.308;-75.096;2022-12-24T16:38:02;-9.20;99.90
15107;DHT22;7654;45.308;-75.096;2022-12-24T16:40:33;-9.40;99.90
15107;DHT22;7654;45.308;-75.096;2022-12-24T16:43:03;-9.40;99.90
15107;DHT22;7654;45.308;-75.096;2022-12-24T16:45:50;-9.30;99.90
15107;DHT22;7654;45.308;-75.096;2022-12-24T16:48:23;-9.20;99.90